Time;durP1;ratioP1;P1;durP2;ratioP2;P2;SDS_P1;SDS_P2;PMS_P1;PMS_P2;Temp;Humidity;BMP_temperature;BMP_pressure;BME280_temperature;BME280_humidity;BME280_pressure;Samples;Min_cycle;Max_cycle;Signal;HPM_P1;HPM_P2
2021/09/29 00:00:29;;;;;;;1.35;0.40;;;;;;;;;;4863142;29;20061;-80
2021/09/29 00:02:57;;;;;;;0.73;0.30;;;;;;;;;;4843006;29;20453;-80
2021/09/29 00:05:25;;;;;;;2.28;0.40;;;;;;;;;;4877287;29;20045;-80
2021/09/29 00:07:52;;;;;;;1.45;0.50;;;;;;;;;;4847781;29;20049;-80
2021/09/29 00:10:19;;;;;;;1.45;0.40;;;;;;;;;;4848992;29;20051;-80
2021/09/29 00:12:46;;;;;;;1.38;0.30;;;;;;;;;;4850332;29;20093;-80
2021/09/29 00:15:14;;;;;;;1.85;0.30;;;;;;;;;;4816806;29;20426;-80
2021/09/29 00:17:45;;;;;;;0.77;0.30;;;;;;;;;;4831795;29;20563;-80
2021/09/29 00:20:15;;;;;;;0.80;0.32;;;;;;;;;;4846711;29;20053;-80
2021/09/29 00:22:43;;;;;;;2.22;0.45;;;;;;;;;;4836728;29;20052;-80
2021/09/29 00:25:30;;;;;;;0.77;0.38;;;;;;;;;;4869389;29;20106;-81
2021/09/29 00:27:58;;;;;;;3.90;0.43;;;;;;;;;;4851282;29;20097;-81
2021/09/29 00:30:25;;;;;;;1.48;0.45;;;;;;;;;;4846645;29;20790;-80
2021/09/29 00:32:53;;;;;;;1.15;0.40;;;;;;;;;;4816293;29;20042;-80
2021/09/29 00:35:20;;;;;;;0.73;0.40;;;;;;;;;;4846603;29;20077;-80
2021/09/29 00:37:47;;;;;;;1.10;0.32;;;;;;;;;;4845814;29;20045;-80
2021/09/29 00:40:14;;;;;;;1.42;0.30;;;;;;;;;;4863289;29;20044;-80
2021/09/29 00:42:42;;;;;;;1.85;0.28;;;;;;;;;;4863358;29;20048;-80
2021/09/29 00:45:09;;;;;;;1.17;0.55;;;;;;;;;;4854269;29;20125;-80
2021/09/29 00:47:37;;;;;;;1.02;0.35;;;;;;;;;;4864350;29;20101;-80
2021/09/29 00:50:08;;;;;;;0.73;0.40;;;;;;;;;;4831290;29;20121;-80
2021/09/29 00:52:39;;;;;;;1.45;0.40;;;;;;;;;;4845776;29;20050;-80
2021/09/29 00:55:09;;;;;;;2.00;0.50;;;;;;;;;;4859803;29;20124;-80
2021/09/29 00:57:38;;;;;;;1.73;0.52;;;;;;;;;;4860166;29;20045;-80
2021/09/29 01:00:06;;;;;;;1.77;0.40;;;;;;;;;;4844346;29;20495;-80
2021/09/29 01:02:36;;;;;;;1.92;0.82;;;;;;;;;;4824271;29;20105;-80
2021/09/29 01:05:05;;;;;;;2.50;0.50;;;;;;;;;;4859780;29;20555;-80
2021/09/29 01:07:42;;;;;;;1.60;0.47;;;;;;;;;;4844782;29;20124;-80
2021/09/29 01:10:19;;;;;;;2.65;0.40;;;;;;;;;;4842798;29;20497;-81
2021/09/29 01:12:53;;;;;;;1.88;0.40;;;;;;;;;;4863980;29;20059;-80
2021/09/29 01:15:24;;;;;;;1.25;0.45;;;;;;;;;;4867465;29;20060;-80
2021/09/29 01:17:53;;;;;;;1.73;0.43;;;;;;;;;;4871093;29;20049;-81
2021/09/29 01:20:25;;;;;;;1.92;0.50;;;;;;;;;;4858436;29;20065;-80
2021/09/29 01:22:53;;;;;;;;;;;;;;;;;;4888178;29;20049;-81
2021/09/29 01:25:24;;;;;;;1.15;0.32;;;;;;;;;;4848524;29;19924;-79
2021/09/29 01:27:53;;;;;;;1.25;0.32;;;;;;;;;;4871006;29;20931;-81
2021/09/29 01:30:21;;;;;;;1.38;0.60;;;;;;;;;;4887142;29;20617;-80
2021/09/29 01:32:48;;;;;;;2.28;0.55;;;;;;;;;;4868756;29;20045;-80
2021/09/29 01:35:16;;;;;;;1.23;0.45;;;;;;;;;;4869852;29;20128;-81
2021/09/29 01:37:43;;;;;;;1.80;0.50;;;;;;;;;;4861496;29;20120;-80
2021/09/29 01:40:12;;;;;;;2.55;0.47;;;;;;;;;;4864112;29;20041;-80
2021/09/29 01:42:39;;;;;;;2.20;0.60;;;;;;;;;;4863553;29;20045;-80
2021/09/29 01:45:07;;;;;;;1.60;0.40;;;;;;;;;;4853494;29;20068;-81
2021/09/29 01:47:34;;;;;;;1.42;0.50;;;;;;;;;;4863105;29;20069;-80
2021/09/29 01:50:03;;;;;;;2.28;0.90;;;;;;;;;;4848381;29;20041;-81
2021/09/29 01:52:31;;;;;;;3.72;0.50;;;;;;;;;;4848549;29;20088;-81
2021/09/29 01:54:59;;;;;;;1.13;0.50;;;;;;;;;;4861183;29;20057;-81
2021/09/29 01:57:27;;;;;;;1.05;0.40;;;;;;;;;;4863205;29;20040;-80
2021/09/29 01:59:54;;;;;;;2.03;0.47;;;;;;;;;;4862742;29;20554;-80
2021/09/29 02:02:22;;;;;;;0.95;0.40;;;;;;;;;;4847734;29;20081;-80
2021/09/29 02:04:51;;;;;;;1.98;0.60;;;;;;;;;;4879544;29;20041;-80
2021/09/29 02:07:19;;;;;;;1.40;0.50;;;;;;;;;;4863239;29;20120;-80
2021/09/29 02:09:47;;;;;;;1.48;0.60;;;;;;;;;;4847465;29;20056;-80
2021/09/29 02:12:15;;;;;;;2.55;0.57;;;;;;;;;;4859965;29;20058;-80
2021/09/29 02:14:42;;;;;;;4.47;0.85;;;;;;;;;;4844493;29;20129;-80
2021/09/29 02:17:09;;;;;;;2.38;0.47;;;;;;;;;;4829661;29;20506;-80
2021/09/29 02:19:37;;;;;;;2.88;0.40;;;;;;;;;;4859111;29;20105;-80
2021/09/29 02:22:05;;;;;;;1.33;0.63;;;;;;;;;;4861977;29;20041;-80
2021/09/29 02:24:32;;;;;;;1.48;0.55;;;;;;;;;;4864041;29;20467;-80
2021/09/29 02:27:00;;;;;;;2.47;0.60;;;;;;;;;;4843356;29;20050;-80
2021/09/29 02:29:27;;;;;;;1.88;0.50;;;;;;;;;;4838281;29;20057;-79
2021/09/29 02:31:54;;;;;;;1.35;0.40;;;;;;;;;;4870883;29;20132;-80
2021/09/29 02:34:22;;;;;;;1.95;0.60;;;;;;;;;;4856225;29;20053;-79
2021/09/29 02:36:49;;;;;;;1.23;0.55;;;;;;;;;;4847011;29;20038;-80
2021/09/29 02:39:16;;;;;;;2.17;0.60;;;;;;;;;;4844420;29;20498;-80
2021/09/29 02:41:44;;;;;;;1.27;0.68;;;;;;;;;;4859741;29;20045;-80
2021/09/29 02:44:11;;;;;;;1.15;0.35;;;;;;;;;;4866821;29;20049;-80
2021/09/29 02:46:40;;;;;;;1.75;0.50;;;;;;;;;;4851105;29;20045;-79
2021/09/29 02:49:08;;;;;;;1.75;0.50;;;;;;;;;;4847785;29;21256;-80
2021/09/29 02:51:35;;;;;;;2.53;0.85;;;;;;;;;;4860067;29;20109;-80
2021/09/29 02:54:03;;;;;;;1.48;0.60;;;;;;;;;;4843542;29;20053;-80
2021/09/29 02:56:30;;;;;;;1.85;0.80;;;;;;;;;;4840924;29;20052;-80
2021/09/29 02:58:58;;;;;;;1.27;0.60;;;;;;;;;;4844866;29;20043;-79
2021/09/29 03:01:25;;;;;;;1.55;0.50;;;;;;;;;;4844091;29;20050;-79
2021/09/29 03:03:53;;;;;;;1.35;0.70;;;;;;;;;;4859976;29;20103;-80
2021/09/29 03:06:20;;;;;;;2.92;0.60;;;;;;;;;;4843927;29;20126;-80
2021/09/29 03:08:48;;;;;;;2.22;0.73;;;;;;;;;;4859702;29;20060;-79
2021/09/29 03:11:15;;;;;;;0.45;0.30;;;;;;;;;;4859632;29;20052;-80
2021/09/29 03:13:42;;;;;;;1.17;0.45;;;;;;;;;;4858613;29;20129;-80
2021/09/29 03:16:10;;;;;;;0.57;0.38;;;;;;;;;;4856231;29;20078;-80
2021/09/29 03:18:37;;;;;;;1.42;0.60;;;;;;;;;;4877617;29;20462;-79
2021/09/29 03:21:04;;;;;;;0.80;0.40;;;;;;;;;;4857063;29;20057;-79
2021/09/29 03:23:32;;;;;;;1.30;0.50;;;;;;;;;;4863263;29;20522;-79
2021/09/29 03:25:59;;;;;;;0.80;0.35;;;;;;;;;;4861493;29;20170;-79
2021/09/29 03:28:27;;;;;;;1.73;0.55;;;;;;;;;;4877824;29;20100;-79
2021/09/29 03:30:54;;;;;;;2.38;0.80;;;;;;;;;;4850704;29;20505;-79
2021/09/29 03:33:21;;;;;;;1.70;0.50;;;;;;;;;;4866477;29;20048;-79
2021/09/29 03:35:50;;;;;;;1.40;0.50;;;;;;;;;;4851012;29;20406;-79
2021/09/29 03:38:17;;;;;;;2.00;0.52;;;;;;;;;;4866395;29;20123;-79
2021/09/29 03:40:45;;;;;;;1.52;0.32;;;;;;;;;;4866242;29;20566;-79
2021/09/29 03:43:12;;;;;;;1.60;0.52;;;;;;;;;;4888650;29;20068;-79
2021/09/29 03:45:40;;;;;;;1.83;0.50;;;;;;;;;;4868808;29;20048;-79
2021/09/29 03:48:07;;;;;;;0.98;0.50;;;;;;;;;;4872519;29;20101;-79
2021/09/29 03:50:35;;;;;;;2.30;0.90;;;;;;;;;;4861247;29;20053;-79
2021/09/29 03:53:02;;;;;;;1.83;0.70;;;;;;;;;;4850765;29;20135;-79
2021/09/29 03:55:29;;;;;;;2.35;0.60;;;;;;;;;;4853741;29;20136;-79
2021/09/29 03:57:57;;;;;;;2.47;0.60;;;;;;;;;;4890068;29;20053;-79
2021/09/29 04:00:24;;;;;;;1.73;0.70;;;;;;;;;;4865595;29;20100;-79
2021/09/29 04:02:54;;;;;;;1.08;0.50;;;;;;;;;;4878190;29;20100;-79
2021/09/29 04:05:22;;;;;;;1.52;0.60;;;;;;;;;;4835349;29;20049;-80
2021/09/29 04:07:49;;;;;;;2.47;0.70;;;;;;;;;;4869093;29;20046;-79
2021/09/29 04:10:16;;;;;;;0.93;0.50;;;;;;;;;;4881904;29;20130;-80
2021/09/29 04:12:44;;;;;;;0.77;0.35;;;;;;;;;;4865393;29;20091;-79
2021/09/29 04:15:12;;;;;;;1.27;0.73;;;;;;;;;;4865363;29;20097;-79
2021/09/29 04:17:39;;;;;;;1.80;0.68;;;;;;;;;;4865414;29;20037;-80
2021/09/29 04:20:07;;;;;;;1.63;0.60;;;;;;;;;;4865293;29;20410;-80
2021/09/29 04:22:34;;;;;;;2.45;0.50;;;;;;;;;;4865749;29;20075;-80
2021/09/29 04:25:02;;;;;;;1.83;0.73;;;;;;;;;;4864948;29;20045;-80
2021/09/29 04:27:29;;;;;;;1.55;0.60;;;;;;;;;;4882117;29;20104;-80
2021/09/29 04:29:56;;;;;;;0.93;0.52;;;;;;;;;;4850300;29;20040;-80
2021/09/29 04:32:24;;;;;;;1.80;0.90;;;;;;;;;;4865466;29;20603;-80
2021/09/29 04:34:52;;;;;;;1.75;0.68;;;;;;;;;;4865271;29;20049;-80
2021/09/29 04:37:19;;;;;;;1.48;0.50;;;;;;;;;;4850065;29;20490;-80
2021/09/29 04:39:47;;;;;;;1.13;0.50;;;;;;;;;;4864856;29;20041;-79
2021/09/29 04:42:14;;;;;;;1.15;0.40;;;;;;;;;;4846227;29;20076;-79
2021/09/29 04:44:41;;;;;;;1.58;0.57;;;;;;;;;;4849793;29;20391;-82
2021/09/29 04:47:09;;;;;;;2.55;0.40;;;;;;;;;;4864453;29;20467;-80
2021/09/29 04:49:36;;;;;;;2.13;0.77;;;;;;;;;;4864659;29;20080;-80
2021/09/29 04:52:03;;;;;;;1.60;0.68;;;;;;;;;;4881656;29;20041;-81
2021/09/29 04:54:31;;;;;;;1.15;0.40;;;;;;;;;;4864470;29;20485;-80
2021/09/29 04:56:58;;;;;;;1.85;0.50;;;;;;;;;;4866131;29;20459;-80
2021/09/29 04:59:25;;;;;;;1.83;0.40;;;;;;;;;;4864701;29;20049;-80
2021/09/29 05:01:54;;;;;;;1.63;0.65;;;;;;;;;;4849713;29;20064;-80
2021/09/29 05:04:23;;;;;;;2.03;0.70;;;;;;;;;;4864799;29;20049;-79
2021/09/29 05:06:53;;;;;;;1.02;0.32;;;;;;;;;;4864134;29;20097;-79
2021/09/29 05:09:21;;;;;;;0.95;0.40;;;;;;;;;;4864561;29;20394;-79
2021/09/29 05:12:06;;;;;;;3.25;0.55;;;;;;;;;;4864106;29;20041;-79
2021/09/29 05:14:34;;;;;;;1.30;0.50;;;;;;;;;;4881436;29;20056;-79
2021/09/29 05:17:01;;;;;;;1.95;0.55;;;;;;;;;;4870273;29;20567;-79
2021/09/29 05:19:28;;;;;;;1.08;0.50;;;;;;;;;;4856748;29;20060;-79
2021/09/29 05:21:56;;;;;;;1.35;0.40;;;;;;;;;;4863934;29;20068;-79
2021/09/29 05:24:23;;;;;;;2.53;0.35;;;;;;;;;;4873607;29;20474;-80
2021/09/29 05:26:50;;;;;;;1.20;0.50;;;;;;;;;;4849445;29;20061;-80
2021/09/29 05:29:19;;;;;;;2.00;0.68;;;;;;;;;;4864218;29;20052;-80
2021/09/29 05:31:47;;;;;;;1.48;0.43;;;;;;;;;;4849169;29;20049;-79
2021/09/29 05:34:14;;;;;;;1.40;0.45;;;;;;;;;;4876492;29;20438;-80
2021/09/29 05:36:45;;;;;;;2.40;0.60;;;;;;;;;;4853167;29;20731;-80
2021/09/29 05:39:13;;;;;;;2.65;0.60;;;;;;;;;;4871065;29;20049;-80
2021/09/29 05:41:41;;;;;;;0.82;0.40;;;;;;;;;;4859966;29;20401;-81
2021/09/29 05:44:11;;;;;;;1.23;0.40;;;;;;;;;;4857290;29;20045;-82
2021/09/29 05:46:38;;;;;;;2.03;0.60;;;;;;;;;;4856149;29;20487;-81
2021/09/29 05:49:05;;;;;;;0.90;0.50;;;;;;;;;;4855166;29;20042;-80
2021/09/29 05:51:33;;;;;;;1.38;0.40;;;;;;;;;;4862638;29;20506;-80
2021/09/29 05:54:00;;;;;;;1.42;0.50;;;;;;;;;;4845880;29;20057;-80
2021/09/29 05:56:28;;;;;;;2.00;0.70;;;;;;;;;;4859942;29;20049;-81
2021/09/29 05:58:55;;;;;;;1.98;0.40;;;;;;;;;;4852030;29;20099;-81
2021/09/29 06:01:23;;;;;;;0.75;0.40;;;;;;;;;;4845775;29;20501;-81
2021/09/29 06:03:50;;;;;;;1.10;0.30;;;;;;;;;;4851989;29;20100;-81
2021/09/29 06:06:18;;;;;;;1.50;0.40;;;;;;;;;;4864961;29;20053;-80
2021/09/29 06:08:45;;;;;;;1.70;0.32;;;;;;;;;;4855176;29;20470;-80
2021/09/29 06:11:12;;;;;;;1.17;0.43;;;;;;;;;;4853522;29;20487;-81
2021/09/29 06:13:40;;;;;;;1.20;0.30;;;;;;;;;;4870834;29;20466;-80
2021/09/29 06:16:09;;;;;;;1.38;0.50;;;;;;;;;;4870390;29;20117;-80
2021/09/29 06:18:37;;;;;;;0.82;0.40;;;;;;;;;;4847987;29;20049;-80
2021/09/29 06:21:06;;;;;;;2.47;0.55;;;;;;;;;;4870667;29;20041;-80
2021/09/29 06:23:35;;;;;;;1.92;0.55;;;;;;;;;;4864409;29;20056;-80
2021/09/29 06:26:03;;;;;;;1.10;0.32;;;;;;;;;;4852865;29;20037;-80
2021/09/29 06:28:34;;;;;;;2.38;0.60;;;;;;;;;;4884306;29;20910;-82
2021/09/29 06:31:02;;;;;;;1.27;0.40;;;;;;;;;;4862529;29;20045;-81
2021/09/29 06:33:29;;;;;;;1.33;0.32;;;;;;;;;;4860713;29;20049;-82
2021/09/29 06:35:56;;;;;;;0.70;0.30;;;;;;;;;;4868125;29;20048;-82
2021/09/29 06:38:25;;;;;;;1.15;0.40;;;;;;;;;;4840039;29;20132;-82
2021/09/29 06:40:56;;;;;;;2.08;0.60;;;;;;;;;;4854781;29;20506;-82
2021/09/29 06:43:24;;;;;;;2.47;0.52;;;;;;;;;;4846035;29;20040;-82
2021/09/29 06:45:51;;;;;;;0.93;0.50;;;;;;;;;;4857100;29;20041;-82
2021/09/29 06:48:18;;;;;;;0.73;0.30;;;;;;;;;;4858596;29;20415;-81
2021/09/29 06:50:46;;;;;;;0.68;0.30;;;;;;;;;;4861509;29;20105;-82
2021/09/29 06:53:18;;;;;;;1.88;0.65;;;;;;;;;;4870622;29;20409;-81
2021/09/29 06:55:46;;;;;;;1.90;0.47;;;;;;;;;;4873947;29;20052;-82
2021/09/29 06:58:13;;;;;;;1.38;0.50;;;;;;;;;;4873622;29;20045;-81
2021/09/29 07:00:41;;;;;;;2.60;0.40;;;;;;;;;;4841269;29;20057;-82
2021/09/29 07:03:13;;;;;;;2.25;0.63;;;;;;;;;;4842599;29;20049;-81
2021/09/29 07:05:41;;;;;;;2.20;0.40;;;;;;;;;;4859109;29;20052;-81
2021/09/29 07:08:08;;;;;;;1.67;0.45;;;;;;;;;;4866964;29;20061;-81
2021/09/29 07:10:35;;;;;;;1.35;0.47;;;;;;;;;;4858523;29;20037;-81
2021/09/29 07:13:03;;;;;;;1.13;0.50;;;;;;;;;;4871025;29;20121;-81
2021/09/29 07:15:30;;;;;;;1.20;0.43;;;;;;;;;;4855275;29;20052;-81
2021/09/29 07:17:59;;;;;;;1.63;0.43;;;;;;;;;;4829007;29;20445;-81
2021/09/29 07:20:27;;;;;;;1.88;0.65;;;;;;;;;;4854800;29;20045;-81
2021/09/29 07:22:56;;;;;;;2.08;0.50;;;;;;;;;;4854075;29;20065;-82
2021/09/29 07:25:27;;;;;;;1.67;0.50;;;;;;;;;;4842148;29;20477;-82
2021/09/29 07:27:55;;;;;;;1.35;0.52;;;;;;;;;;4862489;29;20144;-82
2021/09/29 07:30:23;;;;;;;1.30;0.60;;;;;;;;;;4850955;29;20125;-81
2021/09/29 07:32:51;;;;;;;2.78;0.77;;;;;;;;;;4848463;29;20053;-82
2021/09/29 07:35:20;;;;;;;1.20;0.50;;;;;;;;;;4846802;29;20056;-81
2021/09/29 07:37:47;;;;;;;1.83;0.50;;;;;;;;;;4845533;29;20037;-81
2021/09/29 07:40:15;;;;;;;1.60;0.70;;;;;;;;;;4844842;29;20041;-81
2021/09/29 07:42:42;;;;;;;1.30;0.50;;;;;;;;;;4864580;29;20052;-78
2021/09/29 07:45:10;;;;;;;1.15;0.40;;;;;;;;;;4869208;29;20042;-79
2021/09/29 07:47:38;;;;;;;0.65;0.30;;;;;;;;;;4838056;29;20045;-83
2021/09/29 07:50:06;;;;;;;1.13;0.40;;;;;;;;;;4852000;29;20056;-82
2021/09/29 07:52:34;;;;;;;1.20;0.35;;;;;;;;;;4869771;29;20488;-83
2021/09/29 07:55:02;;;;;;;0.80;0.30;;;;;;;;;;4857345;29;20060;-82
2021/09/29 07:57:41;;;;;;;1.05;0.32;;;;;;;;;;4879260;29;20049;-83
2021/09/29 08:00:09;;;;;;;0.68;0.30;;;;;;;;;;4844738;29;20479;-83
2021/09/29 08:02:39;;;;;;;2.63;0.70;;;;;;;;;;4853298;29;20103;-86
2021/09/29 08:05:07;;;;;;;1.50;0.60;;;;;;;;;;4863506;29;20049;-81
2021/09/29 08:07:34;;;;;;;1.27;0.30;;;;;;;;;;4848632;29;20053;-85
2021/09/29 08:10:01;;;;;;;2.28;0.60;;;;;;;;;;4852461;29;20060;-85
2021/09/29 08:12:29;;;;;;;2.20;0.80;;;;;;;;;;4857293;29;20057;-84
2021/09/29 08:14:57;;;;;;;2.67;0.80;;;;;;;;;;4862632;29;20058;-85
2021/09/29 08:17:24;;;;;;;1.15;0.45;;;;;;;;;;4857852;29;20135;-83
2021/09/29 08:19:51;;;;;;;0.85;0.43;;;;;;;;;;4870858;29;20044;-85
2021/09/29 08:22:20;;;;;;;1.10;0.30;;;;;;;;;;4847380;29;20137;-83
2021/09/29 08:25:00;;;;;;;0.68;0.25;;;;;;;;;;4858533;29;20132;-80
2021/09/29 08:27:33;;;;;;;2.25;0.40;;;;;;;;;;4880281;29;20051;-83
2021/09/29 08:32:46;;;;;;;0.80;0.32;;;;;;;;;;4855932;29;20105;-86
2021/09/29 08:37:50;;;;;;;1.23;0.30;;;;;;;;;;4870042;29;20064;-82
2021/09/29 08:40:27;;;;;;;1.40;0.40;;;;;;;;;;4864224;29;20438;-84
2021/09/29 08:43:06;;;;;;;1.15;0.40;;;;;;;;;;4861976;29;20073;-80
2021/09/29 08:46:20;;;;;;;1.08;0.45;;;;;;;;;;4863192;29;20528;-82
2021/09/29 08:48:33;;;;;;;1.30;0.50;;;;;;;;;;4855738;29;20502;-83
2021/09/29 09:16:18;;;;;;;3.30;0.70;;;;;;;;;;4786994;29;20055;-82
2021/09/29 09:18:46;;;;;;;1.90;0.90;;;;;;;;;;4823255;29;20073;-81
2021/09/29 09:21:16;;;;;;;1.80;0.75;;;;;;;;;;4846138;29;20102;-79
2021/09/29 09:23:45;;;;;;;1.23;0.93;;;;;;;;;;4845753;29;20073;-81
2021/09/29 09:26:13;;;;;;;2.25;1.23;;;;;;;;;;4845745;29;20054;-81
2021/09/29 09:28:41;;;;;;;2.30;1.60;;;;;;;;;;4846017;29;20045;-81
2021/09/29 09:31:13;;;;;;;4.05;1.80;;;;;;;;;;4839526;29;20048;-82
2021/09/29 09:33:56;;;;;;;2.72;1.58;;;;;;;;;;4865523;29;20037;-81
2021/09/29 09:36:27;;;;;;;2.58;1.30;;;;;;;;;;4845464;29;20053;-82
2021/09/29 09:38:55;;;;;;;4.13;2.20;;;;;;;;;;4831727;29;20057;-84
2021/09/29 09:41:26;;;;;;;3.55;2.47;;;;;;;;;;4845908;29;20594;-83
2021/09/29 09:43:58;;;;;;;2.78;2.05;;;;;;;;;;4875412;29;20086;-83
2021/09/29 09:46:26;;;;;;;3.50;2.10;;;;;;;;;;4849810;29;20053;-83
2021/09/29 09:49:03;;;;;;;3.40;2.13;;;;;;;;;;4845371;29;20072;-82
2021/09/29 09:51:32;;;;;;;2.53;1.38;;;;;;;;;;4861791;29;20052;-82
2021/09/29 09:54:00;;;;;;;4.43;2.10;;;;;;;;;;4843298;29;20041;-81
2021/09/29 09:56:32;;;;;;;3.03;2.08;;;;;;;;;;4845230;29;20145;-81
2021/09/29 09:58:59;;;;;;;2.20;1.40;;;;;;;;;;4841448;29;20050;-82
2021/09/29 10:01:29;;;;;;;2.42;1.45;;;;;;;;;;4844877;29;20054;-81
2021/09/29 10:04:07;;;;;;;1.90;1.23;;;;;;;;;;4861548;29;20439;-82
2021/09/29 10:06:35;;;;;;;2.08;1.40;;;;;;;;;;4861467;29;20117;-81
2021/09/29 10:09:10;;;;;;;2.35;1.75;;;;;;;;;;4826904;29;20476;-81
2021/09/29 10:11:57;;;;;;;2.25;1.50;;;;;;;;;;4856397;29;20049;-80
2021/09/29 10:14:45;;;;;;;2.15;1.38;;;;;;;;;;4860035;29;20045;-78
2021/09/29 10:28:18;;;;;;;1.40;0.70;;;;;;;;;;4876705;29;20095;-80
2021/09/29 10:33:27;;;;;;;1.95;1.05;;;;;;;;;;4877736;29;20052;-80
2021/09/29 10:42:02;;;;;;;1.17;0.65;;;;;;;;;;4863888;29;20059;-79
2021/09/29 10:45:28;;;;;;;1.15;0.70;;;;;;;;;;4857011;29;20052;-78
2021/09/29 11:10:54;;;;;;;1.50;0.70;;;;;;;;;;4862802;29;20064;-79
2021/09/29 11:29:49;;;;;;;1.90;0.30;;;;;;;;;;4849889;29;20053;-73
2021/09/29 11:32:23;;;;;;;0.50;0.28;;;;;;;;;;4859037;29;20052;-75
2021/09/29 11:34:52;;;;;;;0.30;0.13;;;;;;;;;;4861188;29;20049;-73
2021/09/29 12:08:06;;;;;;;0.77;0.20;;;;;;;;;;4858777;29;20101;-74
2021/09/29 12:10:35;;;;;;;0.20;0.10;;;;;;;;;;4861585;29;20136;-74
2021/09/29 12:13:06;;;;;;;0.22;0.20;;;;;;;;;;4863627;29;20135;-76
2021/09/29 12:15:44;;;;;;;1.27;0.38;;;;;;;;;;4862843;29;20049;-76
2021/09/29 12:18:13;;;;;;;0.40;0.20;;;;;;;;;;4876871;29;20144;-75
2021/09/29 12:20:51;;;;;;;0.93;0.15;;;;;;;;;;4853824;29;20145;-75
2021/09/29 12:23:22;;;;;;;0.30;0.20;;;;;;;;;;4887770;29;20477;-75
2021/09/29 12:25:55;;;;;;;0.75;0.30;;;;;;;;;;4864340;29;20124;-76
2021/09/29 12:28:35;;;;;;;0.88;0.60;;;;;;;;;;4868259;29;20080;-75
2021/09/29 12:34:12;;;;;;;0.40;0.20;;;;;;;;;;4853526;29;20045;-76
2021/09/29 12:36:40;;;;;;;0.30;0.20;;;;;;;;;;4861811;29;20041;-80
2021/09/29 12:39:19;;;;;;;0.38;0.20;;;;;;;;;;4848245;29;20112;-78
2021/09/29 12:41:50;;;;;;;0.45;0.20;;;;;;;;;;4878404;29;20553;-79
2021/09/29 12:44:18;;;;;;;0.55;0.22;;;;;;;;;;4880871;29;20093;-78
2021/09/29 12:46:52;;;;;;;1.40;0.30;;;;;;;;;;4877327;29;20398;-78
2021/09/29 12:49:21;;;;;;;0.90;0.20;;;;;;;;;;4847035;29;20109;-79
2021/09/29 12:54:35;;;;;;;0.30;0.20;;;;;;;;;;4850512;29;20577;-79
2021/09/29 12:57:02;;;;;;;0.47;0.20;;;;;;;;;;4863601;29;20045;-80
2021/09/29 12:59:29;;;;;;;0.88;0.25;;;;;;;;;;4879578;29;20494;-75
2021/09/29 13:01:57;;;;;;;2.53;0.35;;;;;;;;;;4859119;29;20497;-73
2021/09/29 13:04:25;;;;;;;1.42;0.40;;;;;;;;;;4848279;29;20477;-72
2021/09/29 13:06:52;;;;;;;1.02;0.43;;;;;;;;;;4863418;29;20045;-73
2021/09/29 13:09:20;;;;;;;1.95;0.77;;;;;;;;;;4862531;29;20045;-75
2021/09/29 13:11:47;;;;;;;1.23;0.50;;;;;;;;;;4885919;29;20124;-73
2021/09/29 13:14:14;;;;;;;0.60;0.30;;;;;;;;;;4867686;29;20151;-72
2021/09/29 13:16:42;;;;;;;2.13;0.50;;;;;;;;;;4868439;29;20036;-72
2021/09/29 13:19:17;;;;;;;1.02;0.20;;;;;;;;;;4880155;29;20049;-78
2021/09/29 13:22:00;;;;;;;2.15;0.20;;;;;;;;;;4848962;29;20045;-79
2021/09/29 13:37:36;;;;;;;0.75;0.30;;;;;;;;;;4867239;29;20140;-82
2021/09/29 13:40:04;;;;;;;0.70;0.30;;;;;;;;;;4863624;29;20041;-81
2021/09/29 13:42:31;;;;;;;1.23;0.30;;;;;;;;;;4845591;29;20057;-81
2021/09/29 13:44:58;;;;;;;0.60;0.38;;;;;;;;;;4864787;29;20075;-80
2021/09/29 13:47:26;;;;;;;1.00;0.35;;;;;;;;;;4867282;29;20057;-81
2021/09/29 13:49:54;;;;;;;0.82;0.40;;;;;;;;;;4863555;29;20490;-80
2021/09/29 13:52:25;;;;;;;1.88;0.32;;;;;;;;;;4859142;29;20049;-79
2021/09/29 13:54:57;;;;;;;1.38;0.45;;;;;;;;;;4868310;29;20053;-79
2021/09/29 13:57:28;;;;;;;1.70;0.40;;;;;;;;;;4863510;29;20410;-80
2021/09/29 14:00:06;;;;;;;1.70;0.20;;;;;;;;;;4863138;29;20052;-80
2021/09/29 14:33:00;;;;;;;2.15;0.30;;;;;;;;;;4875966;29;20057;-78
2021/09/29 14:35:27;;;;;;;2.42;0.38;;;;;;;;;;4878640;29;20462;-79
2021/09/29 14:37:55;;;;;;;2.08;0.30;;;;;;;;;;4862292;29;20068;-79
2021/09/29 14:40:24;;;;;;;1.45;0.28;;;;;;;;;;4868745;29;20119;-79
2021/09/29 14:42:54;;;;;;;3.45;0.30;;;;;;;;;;4846595;29;20101;-79
2021/09/29 14:45:22;;;;;;;1.52;0.40;;;;;;;;;;4877802;29;20045;-79
2021/09/29 14:47:49;;;;;;;2.30;0.38;;;;;;;;;;4878824;29;20064;-79
2021/09/29 14:50:26;;;;;;;1.73;0.20;;;;;;;;;;4880503;29;20045;-79
2021/09/29 14:52:56;;;;;;;4.25;0.32;;;;;;;;;;4883047;29;20060;-78
2021/09/29 14:55:24;;;;;;;1.75;0.30;;;;;;;;;;4868479;29;20137;-78
2021/09/29 14:57:52;;;;;;;1.55;0.20;;;;;;;;;;4879400;29;20120;-78
2021/09/29 15:00:19;;;;;;;0.93;0.40;;;;;;;;;;4874673;29;20045;-78
2021/09/29 15:02:47;;;;;;;1.40;0.30;;;;;;;;;;4878658;29;20093;-72
2021/09/29 15:05:15;;;;;;;0.38;0.10;;;;;;;;;;4878515;29;20045;-73
2021/09/29 15:07:42;;;;;;;0.68;0.15;;;;;;;;;;4862164;29;20041;-76
2021/09/29 15:10:10;;;;;;;1.27;0.30;;;;;;;;;;4862528;29;20545;-73
2021/09/29 15:12:37;;;;;;;3.92;0.32;;;;;;;;;;4862287;29;20069;-73
2021/09/29 15:18:06;;;;;;;3.40;0.20;;;;;;;;;;4860326;29;20090;-72
2021/09/29 15:20:51;;;;;;;2.40;0.30;;;;;;;;;;4861293;29;20052;-71
2021/09/29 15:29:14;;;;;;;3.88;1.00;;;;;;;;;;4827783;29;20050;-72
2021/09/29 15:32:38;;;;;;;4.35;1.65;;;;;;;;;;4865337;29;20052;-72
2021/09/29 15:48:48;;;;;;;0.80;0.30;;;;;;;;;;4881920;29;20045;-77
2021/09/29 15:54:06;;;;;;;1.38;0.40;;;;;;;;;;4867594;29;20052;-78
2021/09/29 15:56:49;;;;;;;1.95;0.30;;;;;;;;;;4885639;29;20052;-78
2021/09/29 16:01:47;;;;;;;0.95;0.30;;;;;;;;;;4878213;29;20088;-77
2021/09/29 16:30:30;;;;;;;2.05;0.30;;;;;;;;;;4892510;29;20101;-76
2021/09/29 16:35:50;;;;;;;3.40;0.60;;;;;;;;;;4888021;29;20045;-75
2021/09/29 16:38:17;;;;;;;1.35;0.47;;;;;;;;;;4868167;29;20517;-75
2021/09/29 16:40:45;;;;;;;1.65;0.43;;;;;;;;;;4882197;29;20041;-76
2021/09/29 16:43:14;;;;;;;0.77;0.30;;;;;;;;;;4875143;29;20044;-77
2021/09/29 16:45:41;;;;;;;1.80;1.05;;;;;;;;;;4869935;29;20406;-76
2021/09/29 16:48:13;;;;;;;1.13;0.50;;;;;;;;;;4860859;29;20069;-77
2021/09/29 16:51:28;;;;;;;0.63;0.20;;;;;;;;;;4859886;29;20041;-76
2021/09/29 16:53:35;;;;;;;1.70;0.40;;;;;;;;;;4868089;29;20127;-76
2021/09/29 16:56:03;;;;;;;4.07;0.40;;;;;;;;;;4854616;29;20060;-76
2021/09/29 16:58:44;;;;;;;0.90;0.30;;;;;;;;;;4889424;29;20524;-77
2021/09/29 17:01:13;;;;;;;0.38;0.15;;;;;;;;;;4881786;29;20049;-76
2021/09/29 17:03:41;;;;;;;0.98;0.30;;;;;;;;;;4866352;29;20041;-76
2021/09/29 17:06:09;;;;;;;0.60;0.20;;;;;;;;;;4876308;29;20045;-76
2021/09/29 17:08:37;;;;;;;1.33;0.25;;;;;;;;;;4866872;29;20060;-77
2021/09/29 17:11:10;;;;;;;0.63;0.30;;;;;;;;;;4874089;29;20053;-77
2021/09/29 17:13:41;;;;;;;1.20;0.30;;;;;;;;;;4879896;29;20095;-79
2021/09/29 17:16:14;;;;;;;2.25;0.28;;;;;;;;;;4884052;29;20049;-78
2021/09/29 17:18:44;;;;;;;0.85;0.25;;;;;;;;;;4878860;29;20049;-79
2021/09/29 17:21:13;;;;;;;1.50;0.30;;;;;;;;;;4868853;29;20494;-78
2021/09/29 17:23:40;;;;;;;1.00;0.30;;;;;;;;;;4877571;29;20144;-78
2021/09/29 17:26:08;;;;;;;0.95;0.20;;;;;;;;;;4868608;29;20053;-77
2021/09/29 17:28:36;;;;;;;1.95;0.30;;;;;;;;;;4879059;29;20044;-77
2021/09/29 17:31:07;;;;;;;2.58;0.52;;;;;;;;;;4865494;29;20124;-78
2021/09/29 17:34:22;;;;;;;4.05;0.73;;;;;;;;;;4880404;29;20491;-76
2021/09/29 17:52:35;;;;;;;1.48;0.43;;;;;;;;;;4853652;29;20060;-78
2021/09/29 17:55:03;;;;;;;1.27;0.32;;;;;;;;;;4871128;29;20045;-78
2021/09/29 17:57:31;;;;;;;1.95;0.73;;;;;;;;;;4876782;29;20060;-83
2021/09/29 17:59:59;;;;;;;0.95;0.30;;;;;;;;;;4852086;29;20052;-79
2021/09/29 18:05:38;;;;;;;1.38;0.40;;;;;;;;;;4846882;29;20061;-77
2021/09/29 18:08:06;;;;;;;0.98;0.30;;;;;;;;;;4874513;29;20052;-79
2021/09/29 18:10:35;;;;;;;0.73;0.28;;;;;;;;;;4863343;29;20045;-79
2021/09/29 18:13:04;;;;;;;0.60;0.28;;;;;;;;;;4854970;29;20058;-78
2021/09/29 18:15:31;;;;;;;0.50;0.20;;;;;;;;;;4846182;29;20046;-81
2021/09/29 18:17:59;;;;;;;0.50;0.20;;;;;;;;;;4859003;29;20045;-84
2021/09/29 18:20:26;;;;;;;0.28;0.15;;;;;;;;;;4858310;29;20057;-79
2021/09/29 18:22:54;;;;;;;1.30;0.20;;;;;;;;;;4866936;29;20049;-81
2021/09/29 18:25:21;;;;;;;0.60;0.20;;;;;;;;;;4848858;29;20048;-80
2021/09/29 18:27:54;;;;;;;;;;;;;;;;;;4855079;29;20041;-80
2021/09/29 18:30:21;;;;;;;1.08;0.20;;;;;;;;;;4860013;29;19924;-79
2021/09/29 18:32:52;;;;;;;0.65;0.30;;;;;;;;;;4859980;29;20057;-80
2021/09/29 18:35:25;;;;;;;0.75;0.30;;;;;;;;;;4844650;29;20049;-81
2021/09/29 18:37:53;;;;;;;1.23;0.30;;;;;;;;;;4858247;29;20041;-80
2021/09/29 18:40:21;;;;;;;2.08;0.30;;;;;;;;;;4858569;29;20451;-79
2021/09/29 18:42:48;;;;;;;0.30;0.20;;;;;;;;;;4859739;29;20549;-79
2021/09/29 18:45:18;;;;;;;1.30;0.30;;;;;;;;;;4859285;29;20069;-80
2021/09/29 18:47:45;;;;;;;0.93;0.30;;;;;;;;;;4859327;29;20049;-78
2021/09/29 18:50:13;;;;;;;1.13;0.20;;;;;;;;;;4859295;29;20116;-79
2021/09/29 18:52:40;;;;;;;2.83;0.30;;;;;;;;;;4846084;29;20067;-80
2021/09/29 19:04:35;;;;;;;0.50;0.10;;;;;;;;;;4848716;29;20042;-79
2021/09/29 19:09:25;;;;;;;0.73;0.10;;;;;;;;;;4860235;29;20045;-80
2021/09/29 19:11:52;;;;;;;0.63;0.25;;;;;;;;;;4869919;29;20124;-80
2021/09/29 19:14:20;;;;;;;0.40;0.10;;;;;;;;;;4861803;29;20057;-80